createdAt,value
2023-11-07T00:01:31.186Z,2.90
2023-11-07T00:03:59.729Z,2.90
2023-11-07T00:06:27.014Z,2.90
2023-11-07T00:08:54.368Z,2.90
2023-11-07T00:11:21.338Z,2.90
2023-11-07T00:13:51.677Z,2.90
2023-11-07T00:16:18.914Z,2.80
2023-11-07T00:18:46.436Z,2.90
2023-11-07T00:21:14.166Z,2.90
2023-11-07T00:23:41.188Z,2.90
2023-11-07T00:26:08.253Z,3.00
2023-11-07T00:28:37.907Z,2.90
2023-11-07T00:31:05.110Z,2.90
2023-11-07T00:33:32.271Z,2.90
2023-11-07T00:35:59.820Z,3.00
2023-11-07T00:38:30.451Z,2.90
2023-11-07T00:40:57.795Z,2.90
2023-11-07T00:43:24.740Z,2.90
2023-11-07T00:45:51.722Z,2.90
2023-11-07T00:48:19.051Z,2.80
2023-11-07T00:50:46.121Z,2.90
2023-11-07T00:53:13.075Z,2.90
2023-11-07T00:55:40.084Z,2.90
2023-11-07T00:58:07.071Z,2.90
2023-11-07T01:00:37.068Z,2.90
2023-11-07T01:03:04.332Z,2.90
2023-11-07T01:05:34.456Z,2.90
2023-11-07T01:08:02.256Z,2.80
2023-11-07T01:10:29.193Z,2.90
2023-11-07T01:12:57.188Z,2.90
2023-11-07T01:15:24.437Z,2.90
2023-11-07T01:17:51.828Z,2.90
2023-11-07T01:20:18.868Z,2.90
2023-11-07T01:22:46.274Z,2.90
2023-11-07T01:25:13.426Z,2.90
2023-11-07T01:27:40.397Z,2.90
2023-11-07T01:30:08.583Z,3.00
2023-11-07T01:32:37.698Z,3.00
2023-11-07T01:35:05.834Z,2.90
2023-11-07T01:37:33.205Z,3.00
2023-11-07T01:40:00.268Z,2.90
2023-11-07T01:42:27.180Z,2.90
2023-11-07T01:44:54.776Z,2.90
2023-11-07T01:47:25.736Z,2.90
2023-11-07T01:49:53.565Z,2.80
2023-11-07T01:52:21.165Z,2.80
2023-11-07T01:54:52.504Z,2.90
2023-11-07T01:57:20.342Z,2.80
2023-11-07T01:59:49.583Z,2.80
2023-11-07T02:02:19.564Z,2.70
2023-11-07T02:04:50.138Z,2.70
2023-11-07T02:07:18.811Z,2.70
2023-11-07T02:09:46.752Z,2.70
2023-11-07T02:12:13.992Z,2.70
2023-11-07T02:14:42.327Z,2.70
2023-11-07T02:17:09.329Z,2.70
2023-11-07T02:19:36.289Z,2.70
2023-11-07T02:22:04.713Z,2.70
2023-11-07T02:24:31.823Z,2.70
2023-11-07T02:26:59.612Z,2.70
2023-11-07T02:29:26.545Z,2.70
2023-11-07T02:31:53.715Z,2.70
2023-11-07T02:34:20.838Z,2.70
2023-11-07T02:36:48.678Z,2.60
2023-11-07T02:39:16.481Z,2.60
2023-11-07T02:41:45.822Z,2.70
2023-11-07T02:44:13.596Z,2.70
2023-11-07T02:46:41.116Z,2.70
2023-11-07T02:49:08.924Z,2.70
2023-11-07T02:51:35.967Z,2.70
2023-11-07T02:54:03.120Z,2.70
2023-11-07T02:56:30.717Z,2.70
2023-11-07T02:58:58.112Z,2.80
2023-11-07T03:01:28.488Z,2.70
2023-11-07T03:03:59.350Z,2.70
2023-11-07T03:06:26.874Z,2.70
2023-11-07T03:08:54.489Z,2.70
2023-11-07T03:11:22.319Z,2.70
2023-11-07T03:13:49.470Z,2.70
2023-11-07T03:16:16.776Z,2.60
2023-11-07T03:18:43.909Z,2.60
2023-11-07T03:21:11.241Z,2.60
2023-11-07T03:23:38.416Z,2.60
2023-11-07T03:26:06.005Z,2.70
2023-11-07T03:28:33.073Z,2.60
2023-11-07T03:31:00.232Z,2.70
2023-11-07T03:33:27.592Z,2.80
2023-11-07T03:35:54.792Z,2.70
2023-11-07T03:38:21.743Z,2.70
2023-11-07T03:40:48.631Z,2.70
2023-11-07T03:43:17.195Z,2.70
2023-11-07T03:45:45.086Z,2.70
2023-11-07T03:48:12.262Z,2.70
2023-11-07T03:50:39.383Z,2.60
2023-11-07T03:53:07.162Z,2.60
2023-11-07T03:55:34.814Z,2.60
2023-11-07T03:58:01.951Z,2.60
2023-11-07T04:00:28.959Z,2.70
2023-11-07T04:02:56.002Z,2.70
2023-11-07T04:05:24.354Z,2.70
2023-11-07T04:07:51.393Z,2.70
2023-11-07T04:10:18.446Z,2.70
2023-11-07T04:12:45.564Z,2.70
2023-11-07T04:15:13.590Z,2.60
2023-11-07T04:17:41.615Z,2.60
2023-11-07T04:20:10.929Z,2.60
2023-11-07T04:22:38.154Z,2.60
2023-11-07T04:25:05.367Z,2.60
2023-11-07T04:27:33.010Z,2.60
2023-11-07T04:30:00.166Z,2.60
2023-11-07T04:32:27.247Z,2.60
2023-11-07T04:34:54.905Z,2.50
2023-11-07T04:37:21.831Z,2.60
2023-11-07T04:39:49.634Z,2.50
2023-11-07T04:42:16.510Z,2.60
2023-11-07T04:44:43.541Z,2.60
2023-11-07T04:47:10.996Z,2.60
2023-11-07T04:49:39.864Z,2.60
2023-11-07T04:52:07.630Z,2.60
2023-11-07T04:54:34.626Z,2.60
2023-11-07T04:57:01.696Z,2.70
2023-11-07T04:59:28.745Z,2.70
2023-11-07T05:01:56.101Z,2.70
2023-11-07T05:04:23.318Z,2.70
2023-11-07T05:06:50.690Z,2.70
2023-11-07T05:09:18.827Z,2.70
2023-11-07T05:11:45.672Z,2.80
2023-11-07T05:14:12.628Z,2.80
2023-11-07T05:16:40.602Z,2.80
2023-11-07T05:19:10.525Z,2.80
2023-11-07T05:21:38.039Z,2.80
2023-11-07T05:24:05.832Z,2.80
2023-11-07T05:26:33.044Z,2.80
2023-11-07T05:29:01.332Z,2.80
2023-11-07T05:31:28.323Z,2.80
2023-11-07T05:33:55.422Z,2.80
2023-11-07T05:36:22.417Z,2.80
2023-11-07T05:38:50.989Z,2.80
2023-11-07T05:41:19.649Z,2.80
2023-11-07T05:43:46.649Z,2.80
2023-11-07T05:46:13.726Z,2.80
2023-11-07T05:48:40.943Z,2.70
2023-11-07T05:51:08.639Z,2.70
2023-11-07T05:53:35.945Z,2.70
2023-11-07T05:56:03.188Z,2.70
2023-11-07T05:58:30.692Z,2.80
2023-11-07T06:00:58.688Z,2.80
2023-11-07T06:03:25.946Z,2.70
2023-11-07T06:05:53.346Z,2.70
2023-11-07T06:08:21.508Z,2.70
2023-11-07T06:10:49.052Z,2.60
2023-11-07T06:13:16.572Z,2.50
2023-11-07T06:15:43.677Z,2.50
2023-11-07T06:18:11.061Z,2.60
2023-11-07T06:20:38.283Z,2.50
2023-11-07T06:23:05.325Z,2.60
2023-11-07T06:25:32.900Z,2.60
2023-11-07T06:28:00.134Z,2.60
2023-11-07T06:30:31.144Z,2.50
2023-11-07T06:32:59.044Z,2.50
2023-11-07T06:35:27.096Z,2.50
2023-11-07T06:37:54.265Z,2.50
2023-11-07T06:40:22.214Z,2.50
2023-11-07T06:42:49.409Z,2.50
2023-11-07T06:45:16.660Z,2.50
2023-11-07T06:47:48.365Z,2.50
2023-11-07T06:50:17.167Z,2.50
2023-11-07T06:52:53.292Z,2.50
2023-11-07T06:55:26.699Z,2.60
2023-11-07T06:57:55.590Z,2.60
2023-11-07T07:00:26.950Z,2.60
2023-11-07T07:02:57.153Z,2.60
2023-11-07T07:05:25.665Z,2.60
2023-11-07T07:07:52.728Z,2.60
2023-11-07T07:10:19.760Z,2.50
2023-11-07T07:12:46.904Z,2.50
2023-11-07T07:15:13.953Z,2.60
2023-11-07T07:17:41.103Z,2.70
2023-11-07T07:20:14.694Z,2.70
2023-11-07T07:22:42.945Z,2.70
2023-11-07T07:25:16.936Z,2.70
2023-11-07T07:27:48.401Z,2.60
2023-11-07T07:30:22.474Z,2.60
2023-11-07T07:32:54.376Z,2.60
2023-11-07T07:35:22.705Z,2.70
2023-11-07T07:37:54.682Z,2.70
2023-11-07T07:40:27.711Z,2.70
2023-11-07T07:42:55.836Z,2.70
2023-11-07T07:45:25.274Z,2.70
2023-11-07T07:47:52.473Z,2.70
2023-11-07T07:50:20.381Z,2.80
2023-11-07T07:52:55.209Z,2.90
2023-11-07T07:55:31.843Z,3.00
2023-11-07T07:58:02.246Z,3.00
2023-11-07T08:00:32.548Z,3.00
2023-11-07T08:03:06.587Z,3.00
2023-11-07T08:05:34.914Z,3.00
2023-11-07T08:08:01.952Z,3.00
2023-11-07T08:10:29.043Z,3.00
2023-11-07T08:12:57.638Z,3.00
2023-11-07T08:15:27.961Z,3.00
2023-11-07T08:17:55.913Z,3.10
2023-11-07T08:20:24.211Z,3.20
2023-11-07T08:22:53.252Z,3.10
2023-11-07T08:25:22.491Z,3.10
2023-11-07T08:27:52.792Z,3.00
2023-11-07T08:30:26.553Z,3.10
2023-11-07T08:32:54.637Z,3.10
2023-11-07T08:35:22.035Z,3.10
2023-11-07T08:37:51.803Z,3.10
2023-11-07T08:40:22.388Z,3.10
2023-11-07T08:42:51.981Z,3.10
2023-11-07T08:45:22.244Z,3.20
2023-11-07T08:47:52.333Z,3.30
2023-11-07T08:50:20.889Z,3.30
2023-11-07T08:52:53.998Z,3.40
2023-11-07T08:55:22.294Z,3.50
2023-11-07T08:57:52.671Z,3.50
2023-11-07T09:00:28.854Z,3.60
2023-11-07T09:02:56.342Z,3.70
2023-11-07T09:05:24.049Z,3.60
2023-11-07T09:07:51.511Z,3.60
2023-11-07T09:10:21.596Z,3.60
2023-11-07T09:12:48.709Z,3.60
2023-11-07T09:15:15.926Z,3.60
2023-11-07T09:17:44.058Z,3.60
2023-11-07T09:20:15.715Z,3.60
2023-11-07T09:22:43.392Z,3.70
2023-11-07T09:25:11.851Z,3.70
2023-11-07T09:27:39.613Z,3.70
2023-11-07T09:30:11.096Z,3.80
2023-11-07T09:32:40.441Z,3.80
2023-11-07T09:35:08.288Z,3.90
2023-11-07T09:37:40.796Z,3.90
2023-11-07T09:40:11.722Z,4.00
2023-11-07T09:42:40.767Z,4.10
2023-11-07T09:45:19.699Z,4.10
2023-11-07T09:47:49.595Z,4.20
2023-11-07T09:50:21.409Z,4.20
2023-11-07T09:52:50.733Z,4.20
2023-11-07T09:55:18.569Z,4.30
2023-11-07T09:58:01.467Z,4.20
2023-11-07T10:00:35.098Z,4.20
2023-11-07T10:03:02.436Z,4.20
2023-11-07T10:05:31.854Z,4.20
2023-11-07T10:07:59.134Z,4.20
2023-11-07T10:10:26.376Z,4.20
2023-11-07T10:12:53.732Z,4.20
2023-11-07T10:15:24.431Z,4.20
2023-11-07T10:18:05.824Z,4.30
2023-11-07T10:20:35.157Z,4.30
2023-11-07T10:23:03.026Z,4.30
2023-11-07T10:25:37.569Z,4.40
2023-11-07T10:28:09.318Z,4.50
2023-11-07T10:30:43.822Z,4.60
2023-11-07T10:33:12.665Z,4.70
2023-11-07T10:36:03.859Z,4.80
2023-11-07T10:38:32.118Z,4.90
2023-11-07T10:41:00.015Z,5.00
2023-11-07T10:43:40.553Z,5.10
2023-11-07T10:46:10.105Z,5.10
2023-11-07T10:48:42.414Z,5.20
2023-11-07T10:51:12.111Z,5.30
2023-11-07T10:53:43.949Z,5.40
2023-11-07T10:56:16.169Z,5.50
2023-11-07T10:59:01.247Z,5.50
2023-11-07T11:01:37.414Z,5.60
2023-11-07T11:04:09.965Z,5.70
2023-11-07T11:06:38.238Z,5.80
2023-11-07T11:09:12.396Z,5.90
2023-11-07T11:11:42.305Z,6.10
2023-11-07T11:14:09.981Z,6.20
2023-11-07T11:16:39.656Z,6.20
2023-11-07T11:19:34.724Z,6.30
2023-11-07T11:22:32.070Z,6.30
2023-11-07T11:25:30.601Z,6.30
2023-11-07T11:28:08.081Z,6.40
2023-11-07T11:30:39.622Z,6.50
2023-11-07T11:33:13.515Z,6.50
2023-11-07T11:35:42.979Z,6.40
2023-11-07T11:38:19.441Z,6.40
2023-11-07T11:41:03.950Z,6.30
2023-11-07T11:43:33.422Z,6.20
2023-11-07T11:46:15.169Z,6.10
2023-11-07T11:48:52.323Z,6.00
2023-11-07T11:51:40.093Z,6.00
2023-11-07T11:54:11.810Z,5.90
2023-11-07T11:56:51.119Z,5.90
2023-11-07T11:59:19.380Z,5.90
2023-11-07T12:01:50.610Z,5.80
2023-11-07T12:04:28.508Z,5.80
2023-11-07T12:07:11.560Z,5.80
2023-11-07T12:09:48.328Z,5.70
2023-11-07T12:12:17.258Z,5.70
2023-11-07T12:14:53.590Z,5.70
2023-11-07T12:17:24.659Z,5.70
2023-11-07T12:20:09.840Z,5.70
2023-11-07T12:22:37.620Z,5.70
2023-11-07T12:25:18.577Z,5.70
2023-11-07T12:27:46.540Z,5.70
2023-11-07T12:30:18.135Z,5.60
2023-11-07T12:32:46.423Z,5.60
2023-11-07T12:35:22.821Z,5.60
2023-11-07T12:37:52.060Z,5.60
2023-11-07T12:40:19.827Z,5.60
2023-11-07T12:42:54.346Z,5.60
2023-11-07T12:45:32.629Z,5.70
2023-11-07T12:48:06.879Z,5.70
2023-11-07T12:50:44.276Z,5.80
2023-11-07T12:53:13.887Z,5.90
2023-11-07T12:55:40.833Z,5.90
2023-11-07T12:58:08.505Z,6.00
2023-11-07T13:01:05.741Z,6.00
2023-11-07T13:03:34.403Z,5.90
2023-11-07T13:06:04.200Z,5.90
2023-11-07T13:08:32.399Z,5.80
2023-11-07T13:11:21.553Z,5.80
2023-11-07T13:13:51.375Z,5.70
2023-11-07T13:16:19.959Z,5.70
2023-11-07T13:18:48.631Z,5.70
2023-11-07T13:21:18.063Z,5.70
2023-11-07T13:23:45.665Z,5.70
2023-11-07T13:26:12.784Z,5.60
2023-11-07T13:28:42.167Z,5.60
2023-11-07T13:31:09.667Z,5.60
2023-11-07T13:33:37.169Z,5.70
2023-11-07T13:36:08.385Z,5.70
2023-11-07T13:38:35.498Z,5.70
2023-11-07T13:41:02.580Z,5.70
2023-11-07T13:43:30.516Z,5.70
2023-11-07T13:45:58.010Z,5.70
2023-11-07T13:48:25.958Z,5.70
2023-11-07T13:50:53.063Z,5.80
2023-11-07T13:53:20.525Z,5.70
2023-11-07T13:55:48.045Z,5.70
2023-11-07T13:58:15.513Z,5.70
2023-11-07T14:00:43.007Z,5.60
2023-11-07T14:03:10.171Z,5.60
2023-11-07T14:05:37.453Z,5.60
2023-11-07T14:08:05.654Z,5.60
2023-11-07T14:10:32.999Z,5.50
2023-11-07T14:13:01.459Z,5.40
2023-11-07T14:15:37.174Z,5.30
2023-11-07T14:18:15.768Z,5.30
2023-11-07T14:20:58.066Z,5.30
2023-11-07T14:23:25.804Z,5.30
2023-11-07T14:25:52.719Z,5.30
2023-11-07T14:28:20.364Z,5.30
2023-11-07T14:30:47.974Z,5.20
2023-11-07T14:33:17.917Z,5.20
2023-11-07T14:35:47.152Z,5.20
2023-11-07T14:38:15.306Z,5.10
2023-11-07T14:40:42.298Z,5.10
2023-11-07T14:43:15.905Z,5.00
2023-11-07T14:45:45.027Z,4.90
2023-11-07T14:48:12.397Z,4.90
2023-11-07T14:50:40.434Z,4.90
2023-11-07T14:53:08.267Z,4.90
2023-11-07T14:55:38.880Z,4.80
2023-11-07T14:58:07.752Z,4.70
2023-11-07T15:00:41.568Z,4.70
2023-11-07T15:03:13.469Z,4.60
2023-11-07T15:05:45.518Z,4.50
2023-11-07T15:08:13.349Z,4.50
2023-11-07T15:10:40.249Z,4.40
2023-11-07T15:13:08.921Z,4.30
2023-11-07T15:15:36.338Z,4.30
2023-11-07T15:18:05.474Z,4.20
2023-11-07T15:20:33.319Z,4.30
2023-11-07T15:23:02.688Z,4.20
2023-11-07T15:25:34.231Z,4.10
2023-11-07T15:28:01.435Z,4.10
2023-11-07T15:30:29.116Z,4.10
2023-11-07T15:32:58.533Z,4.10
2023-11-07T15:35:26.896Z,4.10
2023-11-07T15:37:53.883Z,4.00
2023-11-07T15:40:23.393Z,4.00
2023-11-07T15:42:50.810Z,4.00
2023-11-07T15:45:20.050Z,3.90
2023-11-07T15:47:48.420Z,3.90
2023-11-07T15:50:17.580Z,3.90
2023-11-07T15:52:55.757Z,3.90
2023-11-07T15:55:31.665Z,3.90
2023-11-07T15:57:58.619Z,3.90
2023-11-07T16:00:27.704Z,3.80
2023-11-07T16:02:55.141Z,3.80
2023-11-07T16:05:28.066Z,3.80
2023-11-07T16:07:56.194Z,3.80
2023-11-07T16:10:23.210Z,3.70
2023-11-07T16:12:52.465Z,3.70
2023-11-07T16:15:20.064Z,3.70
2023-11-07T16:17:48.555Z,3.70
2023-11-07T16:20:21.697Z,3.70
2023-11-07T16:22:49.209Z,3.70
2023-11-07T16:25:20.097Z,3.60
2023-11-07T16:27:47.729Z,3.60
2023-11-07T16:30:17.581Z,3.50
2023-11-07T16:32:44.949Z,3.50
2023-11-07T16:35:13.374Z,3.50
2023-11-07T16:37:40.481Z,3.50
2023-11-07T16:40:12.959Z,3.50
2023-11-07T16:42:41.845Z,3.40
2023-11-07T16:45:12.469Z,3.40
2023-11-07T16:47:42.730Z,3.30
2023-11-07T16:50:11.858Z,3.30
2023-11-07T16:52:40.833Z,3.30
2023-11-07T16:55:15.718Z,3.30
2023-11-07T16:57:43.949Z,3.20
2023-11-07T17:00:12.700Z,3.20
2023-11-07T17:02:42.312Z,3.30
2023-11-07T17:05:10.020Z,3.20
2023-11-07T17:07:37.692Z,3.30
2023-11-07T17:10:08.128Z,3.30
2023-11-07T17:12:39.579Z,3.30
2023-11-07T17:15:09.226Z,3.30
2023-11-07T17:17:37.402Z,3.20
2023-11-07T17:20:07.229Z,3.20
2023-11-07T17:22:36.981Z,3.20
2023-11-07T17:25:05.990Z,3.20
2023-11-07T17:27:33.065Z,3.20
2023-11-07T17:30:00.873Z,3.10
2023-11-07T17:32:28.250Z,3.10
2023-11-07T17:34:58.443Z,3.10
2023-11-07T17:37:28.855Z,3.10
2023-11-07T17:39:57.063Z,3.10
2023-11-07T17:42:25.150Z,3.10
2023-11-07T17:44:52.120Z,3.20
2023-11-07T17:47:19.542Z,3.10
2023-11-07T17:49:47.961Z,3.10
2023-11-07T17:52:14.968Z,3.20
2023-11-07T17:54:42.035Z,3.10
2023-11-07T17:57:09.170Z,3.10
2023-11-07T17:59:36.297Z,3.10
2023-11-07T18:02:03.289Z,3.10
2023-11-07T18:04:30.405Z,3.10
2023-11-07T18:06:57.481Z,3.00
2023-11-07T18:09:24.510Z,3.00
2023-11-07T18:11:52.863Z,2.90
2023-11-07T18:14:21.886Z,2.90
2023-11-07T18:16:48.873Z,2.90
2023-11-07T18:19:16.052Z,2.90
2023-11-07T18:21:44.174Z,2.90
2023-11-07T18:24:12.328Z,2.90
2023-11-07T18:26:47.364Z,2.90
2023-11-07T18:29:14.879Z,2.90
2023-11-07T18:31:42.113Z,2.90
2023-11-07T18:34:16.857Z,2.80
2023-11-07T18:37:03.220Z,2.80
2023-11-07T18:39:32.224Z,2.80
2023-11-07T18:42:00.177Z,2.80
2023-11-07T18:44:32.354Z,2.80
2023-11-07T18:46:59.903Z,2.90
2023-11-07T18:49:28.910Z,2.90
2023-11-07T18:51:56.728Z,2.80
2023-11-07T18:54:24.100Z,2.80
2023-11-07T18:56:51.866Z,2.80
2023-11-07T18:59:31.172Z,2.80
2023-11-07T19:02:03.941Z,2.90
2023-11-07T19:04:31.171Z,2.90
2023-11-07T19:06:58.119Z,2.90
2023-11-07T19:09:26.097Z,2.90
2023-11-07T19:11:53.212Z,2.90
2023-11-07T19:14:20.197Z,2.90
2023-11-07T19:16:47.435Z,2.90
2023-11-07T19:19:15.186Z,2.80
2023-11-07T19:21:42.291Z,2.80
2023-11-07T19:24:11.541Z,2.80
2023-11-07T19:26:38.514Z,2.80
2023-11-07T19:29:05.440Z,2.80
2023-11-07T19:31:35.648Z,2.80
2023-11-07T19:34:02.812Z,2.80
2023-11-07T19:36:31.021Z,2.80
2023-11-07T19:38:58.284Z,2.90
2023-11-07T19:41:25.278Z,2.90
2023-11-07T19:43:54.014Z,2.90
2023-11-07T19:46:21.125Z,2.90
2023-11-07T19:48:48.547Z,2.90
2023-11-07T19:51:15.735Z,3.00
2023-11-07T19:53:45.612Z,3.00
2023-11-07T19:56:12.790Z,3.00
2023-11-07T19:58:54.114Z,3.00
2023-11-07T20:01:27.253Z,3.00
2023-11-07T20:03:55.150Z,3.00
2023-11-07T20:06:23.334Z,3.00
2023-11-07T20:08:51.463Z,2.90
2023-11-07T20:11:19.097Z,2.80
2023-11-07T20:13:46.373Z,2.80
2023-11-07T20:16:14.533Z,2.70
2023-11-07T20:18:41.577Z,2.70
2023-11-07T20:21:08.836Z,2.80
2023-11-07T20:23:37.804Z,2.80
2023-11-07T20:26:07.866Z,2.70
2023-11-07T20:28:34.840Z,2.80
2023-11-07T20:31:01.829Z,2.70
2023-11-07T20:33:37.532Z,2.70
2023-11-07T20:36:19.334Z,2.70
2023-11-07T20:38:48.079Z,2.70
2023-11-07T20:41:19.879Z,2.70
2023-11-07T20:43:47.803Z,2.70
2023-11-07T20:46:30.858Z,2.80
2023-11-07T20:49:03.474Z,2.80
2023-11-07T20:51:31.903Z,2.80
2023-11-07T20:53:59.360Z,2.70
2023-11-07T20:56:29.724Z,2.70
2023-11-07T20:58:57.862Z,2.70
2023-11-07T21:01:27.566Z,2.60
2023-11-07T21:03:56.821Z,2.60
2023-11-07T21:06:25.106Z,2.50
2023-11-07T21:08:52.393Z,2.50
2023-11-07T21:11:22.224Z,2.50
2023-11-07T21:13:52.946Z,2.50
2023-11-07T21:16:21.448Z,2.50
2023-11-07T21:18:49.164Z,2.50
2023-11-07T21:21:17.478Z,2.50
2023-11-07T21:23:44.663Z,2.50
2023-11-07T21:26:11.832Z,2.50
2023-11-07T21:28:38.823Z,2.40
2023-11-07T21:31:06.579Z,2.50
2023-11-07T21:33:34.144Z,2.50
2023-11-07T21:36:01.184Z,2.50
2023-11-07T21:38:28.666Z,2.50
2023-11-07T21:40:56.053Z,2.50
2023-11-07T21:43:23.269Z,2.40
2023-11-07T21:45:52.816Z,2.40
2023-11-07T21:48:22.183Z,2.40
2023-11-07T21:50:49.416Z,2.40
2023-11-07T21:53:17.636Z,2.40
2023-11-07T21:55:44.706Z,2.40
2023-11-07T21:58:11.614Z,2.40
2023-11-07T22:00:38.647Z,2.30
2023-11-07T22:03:05.669Z,2.30
2023-11-07T22:05:32.871Z,2.30
2023-11-07T22:08:00.079Z,2.20
2023-11-07T22:10:27.033Z,2.20
2023-11-07T22:12:54.018Z,2.20
2023-11-07T22:15:21.794Z,2.20
2023-11-07T22:17:48.792Z,2.20
2023-11-07T22:20:16.756Z,2.10
2023-11-07T22:22:44.189Z,2.10
2023-11-07T22:25:11.669Z,2.10
2023-11-07T22:27:39.885Z,2.10
2023-11-07T22:30:10.878Z,2.10
2023-11-07T22:32:38.993Z,2.10
2023-11-07T22:35:06.277Z,2.00
2023-11-07T22:37:33.281Z,2.10
2023-11-07T22:40:02.382Z,2.00
2023-11-07T22:42:29.321Z,2.00
2023-11-07T22:44:56.351Z,2.00
2023-11-07T22:47:23.650Z,2.00
2023-11-07T22:49:50.558Z,2.00
2023-11-07T22:52:17.546Z,2.00
2023-11-07T22:54:44.564Z,2.00
2023-11-07T22:57:11.596Z,2.00
2023-11-07T22:59:39.377Z,2.00
2023-11-07T23:02:06.702Z,2.10
2023-11-07T23:04:33.817Z,2.10
2023-11-07T23:07:00.811Z,2.00
2023-11-07T23:09:27.884Z,2.00
2023-11-07T23:11:56.745Z,2.00
2023-11-07T23:14:23.951Z,2.00
2023-11-07T23:16:51.761Z,2.10
2023-11-07T23:19:18.729Z,2.10
2023-11-07T23:21:45.784Z,2.10
2023-11-07T23:24:12.819Z,2.10
2023-11-07T23:26:47.976Z,2.00
2023-11-07T23:29:18.274Z,2.10
2023-11-07T23:31:45.351Z,2.10
2023-11-07T23:34:12.596Z,2.20
2023-11-07T23:36:39.659Z,2.20
2023-11-07T23:39:11.768Z,2.10
2023-11-07T23:41:39.393Z,2.20
2023-11-07T23:44:06.446Z,2.20
2023-11-07T23:46:34.376Z,2.20
2023-11-07T23:49:01.254Z,2.20
2023-11-07T23:51:28.351Z,2.10
2023-11-07T23:53:55.324Z,2.10
2023-11-07T23:56:23.071Z,2.10
2023-11-07T23:58:50.561Z,2.10
